Terminal Aerodrome Forecast
Issued by NWS Quad Cities IA IL

Home | Current Version | Previous Version | Text Only | Print | Product List | Glossary On
Versions: 1 2 3 4 5 6 7 8 9 10 11 12 13 14 15 16 17 18
000
FTUS43 KDVN 281215 AAA
TAFDBQ
TAF AMD
KDBQ 281215Z 2812/2912 03003KT P6SM SCT035
      TEMPO 2812/2814 BKN004
     FM281400 34005KT P6SM SCT008 BKN025
     FM282000 01008KT P6SM SCT020 BKN050 PROB30 2821/2823 6SM -SHRA
      BKN025
     FM290500 02007KT 4SM BR BKN015=

USA.gov is the U.S. government's official web portal to all federal, state and local government web resources and services.